createdAt,value
2022-08-06T00:01:04.360Z,1.20
2022-08-06T00:03:31.237Z,1.45
2022-08-06T00:05:58.126Z,1.42
2022-08-06T00:08:25.929Z,1.75
2022-08-06T00:10:52.775Z,1.30
2022-08-06T00:13:19.246Z,1.42
2022-08-06T00:16:09.994Z,1.52
2022-08-06T00:18:32.755Z,1.88
2022-08-06T00:20:58.848Z,1.60
2022-08-06T00:23:26.633Z,1.52
2022-08-06T00:25:53.940Z,1.55
2022-08-06T00:28:30.692Z,1.45
2022-08-06T00:31:05.889Z,1.90
2022-08-06T00:33:44.331Z,2.05
2022-08-06T00:36:28.169Z,1.83
2022-08-06T00:38:57.358Z,1.77
2022-08-06T00:41:27.030Z,2.47
2022-08-06T00:43:57.463Z,1.77
2022-08-06T00:46:24.074Z,2.25
2022-08-06T00:48:53.726Z,2.05
2022-08-06T00:51:21.578Z,2.10
2022-08-06T00:53:49.026Z,2.60
2022-08-06T00:56:15.104Z,2.20
2022-08-06T00:58:41.441Z,2.03
2022-08-06T01:01:17.160Z,2.08
2022-08-06T01:03:51.589Z,1.90
2022-08-06T01:06:54.571Z,2.53
2022-08-06T01:09:08.772Z,1.98
2022-08-06T01:11:37.033Z,1.95
2022-08-06T01:14:05.907Z,2.00
2022-08-06T01:16:39.703Z,2.30
2022-08-06T01:19:29.689Z,1.80
2022-08-06T01:22:39.411Z,2.13
2022-08-06T01:25:15.168Z,1.65
2022-08-06T01:27:45.192Z,1.98
2022-08-06T01:30:20.305Z,2.05
2022-08-06T01:32:51.846Z,2.22
2022-08-06T01:35:46.375Z,1.80
2022-08-06T01:38:10.444Z,2.38
2022-08-06T01:40:38.113Z,1.33
2022-08-06T01:43:13.259Z,1.77
2022-08-06T01:45:55.485Z,1.48
2022-08-06T01:48:28.980Z,2.03
2022-08-06T01:50:58.357Z,1.80
2022-08-06T01:54:01.883Z,1.88
2022-08-06T01:56:28.765Z,2.00
2022-08-06T01:58:59.489Z,1.77
2022-08-06T02:01:29.447Z,1.80
2022-08-06T02:04:17.941Z,1.98
2022-08-06T02:06:49.728Z,2.13
2022-08-06T02:09:22.926Z,2.13
2022-08-06T02:12:11.722Z,1.70
2022-08-06T02:14:54.407Z,2.00
2022-08-06T02:17:53.817Z,2.05
2022-08-06T02:20:35.483Z,1.92
2022-08-06T02:23:06.768Z,1.80
2022-08-06T02:25:39.512Z,2.08
2022-08-06T02:28:07.508Z,1.80
2022-08-06T02:30:42.553Z,1.70
2022-08-06T02:33:11.055Z,1.90
2022-08-06T02:35:52.509Z,2.05
2022-08-06T02:38:37.216Z,2.33
2022-08-06T02:41:31.075Z,1.90
2022-08-06T02:44:05.558Z,2.50
2022-08-06T02:46:48.612Z,2.00
2022-08-06T02:49:25.765Z,2.20
2022-08-06T02:52:18.023Z,1.92
2022-08-06T02:54:58.403Z,2.30
2022-08-06T02:57:48.396Z,2.00
2022-08-06T03:00:18.883Z,2.00
2022-08-06T03:02:49.306Z,2.78
2022-08-06T03:05:19.360Z,2.20
2022-08-06T03:08:08.643Z,2.00
2022-08-06T03:10:37.697Z,2.58
2022-08-06T03:13:06.066Z,2.15
2022-08-06T03:15:59.885Z,2.00
2022-08-06T03:18:26.842Z,1.95
2022-08-06T03:20:55.374Z,1.80
2022-08-06T03:23:24.366Z,2.35
2022-08-06T03:25:53.381Z,2.13
2022-08-06T03:28:22.968Z,1.98
2022-08-06T03:30:55.822Z,2.20
2022-08-06T03:33:42.297Z,2.70
2022-08-06T03:36:11.257Z,2.10
2022-08-06T03:38:55.865Z,2.20
2022-08-06T03:41:29.374Z,2.22
2022-08-06T03:44:03.903Z,1.90
2022-08-06T03:46:41.491Z,2.20
2022-08-06T03:49:14.045Z,2.08
2022-08-06T03:51:50.480Z,2.40
2022-08-06T03:54:30.298Z,1.83
2022-08-06T03:57:08.235Z,1.77
2022-08-06T03:59:43.521Z,2.03
2022-08-06T04:02:45.123Z,2.35
2022-08-06T04:05:16.373Z,2.10
2022-08-06T04:07:54.853Z,2.08
2022-08-06T04:10:33.501Z,1.88
2022-08-06T04:13:07.837Z,1.90
2022-08-06T04:15:53.442Z,1.85
2022-08-06T04:18:42.580Z,2.30
2022-08-06T04:21:19.793Z,2.20
2022-08-06T04:23:49.113Z,1.95
2022-08-06T04:26:19.767Z,2.50
2022-08-06T04:28:57.480Z,2.17
2022-08-06T04:32:11.116Z,1.90
2022-08-06T04:34:27.059Z,2.00
2022-08-06T04:36:56.448Z,2.45
2022-08-06T04:39:24.901Z,2.10
2022-08-06T04:42:05.808Z,1.88
2022-08-06T04:44:33.476Z,1.92
2022-08-06T04:47:00.767Z,2.08
2022-08-06T04:49:58.329Z,2.05
2022-08-06T04:52:37.117Z,1.70
2022-08-06T04:55:24.156Z,2.20
2022-08-06T04:57:57.224Z,2.22
2022-08-06T05:01:02.985Z,2.20
2022-08-06T05:04:06.393Z,1.95
2022-08-06T05:06:16.268Z,2.03
2022-08-06T05:08:44.314Z,2.15
2022-08-06T05:11:24.325Z,2.05
2022-08-06T05:13:54.935Z,1.90
2022-08-06T05:16:21.975Z,2.25
2022-08-06T05:19:19.538Z,2.88
2022-08-06T05:22:11.690Z,2.10
2022-08-06T05:24:39.550Z,1.92
2022-08-06T05:27:22.146Z,2.22
2022-08-06T05:29:54.570Z,3.03
2022-08-06T05:32:25.225Z,1.95
2022-08-06T05:34:53.083Z,2.40
2022-08-06T05:37:25.078Z,1.75
2022-08-06T05:40:09.962Z,1.83
2022-08-06T05:42:38.333Z,2.08
2022-08-06T05:45:06.336Z,2.00
2022-08-06T05:47:47.641Z,2.20
2022-08-06T05:50:27.209Z,1.70
2022-08-06T05:53:11.891Z,1.73
2022-08-06T05:55:57.359Z,1.55
2022-08-06T05:58:35.955Z,1.42
2022-08-06T06:01:13.881Z,1.80
2022-08-06T06:03:41.936Z,1.42
2022-08-06T06:06:17.432Z,1.10
2022-08-06T06:08:58.544Z,1.60
2022-08-06T06:11:54.746Z,1.35
2022-08-06T06:14:41.815Z,1.10
2022-08-06T06:17:19.406Z,1.30
2022-08-06T06:20:08.404Z,1.23
2022-08-06T06:22:57.725Z,1.67
2022-08-06T06:25:33.423Z,1.20
2022-08-06T06:28:47.208Z,1.73
2022-08-06T06:32:06.430Z,1.05
2022-08-06T06:37:02.598Z,1.25
2022-08-06T06:39:37.480Z,1.40
2022-08-06T06:42:33.249Z,0.80
2022-08-06T06:46:04.520Z,1.17
2022-08-06T06:47:59.546Z,1.00
2022-08-06T06:50:33.370Z,1.02
2022-08-06T06:53:03.595Z,1.27
2022-08-06T06:55:52.143Z,0.90
2022-08-06T06:58:26.293Z,1.17
2022-08-06T07:01:26.437Z,0.80
2022-08-06T07:03:43.631Z,1.17
2022-08-06T07:06:11.837Z,1.13
2022-08-06T07:08:59.873Z,0.60
2022-08-06T07:11:40.167Z,1.15
2022-08-06T07:14:11.121Z,1.08
2022-08-06T07:16:38.153Z,0.80
2022-08-06T07:19:10.192Z,0.70
2022-08-06T07:21:42.298Z,0.80
2022-08-06T07:24:35.955Z,0.80
2022-08-06T07:27:03.516Z,0.95
2022-08-06T07:29:49.667Z,1.23
2022-08-06T07:32:31.992Z,1.10
2022-08-06T07:35:00.438Z,0.95
2022-08-06T07:37:38.498Z,0.80
2022-08-06T07:40:06.273Z,1.10
2022-08-06T07:42:37.303Z,0.65
2022-08-06T07:45:11.206Z,0.80
2022-08-06T07:47:54.380Z,0.80
2022-08-06T07:50:24.307Z,0.93
2022-08-06T07:52:54.776Z,0.80
2022-08-06T07:55:25.371Z,0.63
2022-08-06T07:57:58.892Z,0.93
2022-08-06T08:00:27.355Z,0.70
2022-08-06T08:03:19.435Z,0.73
2022-08-06T08:06:23.667Z,0.95
2022-08-06T08:09:02.143Z,1.00
2022-08-06T08:11:37.672Z,0.77
2022-08-06T08:14:18.930Z,0.70
2022-08-06T08:16:46.300Z,0.60
2022-08-06T08:19:34.670Z,0.70
2022-08-06T08:22:19.156Z,0.50
2022-08-06T08:24:54.157Z,0.60
2022-08-06T08:27:23.569Z,0.90
2022-08-06T08:29:56.924Z,0.50
2022-08-06T08:32:24.184Z,0.63
2022-08-06T08:34:53.520Z,0.55
2022-08-06T08:37:21.419Z,0.50
2022-08-06T08:39:48.653Z,0.50
2022-08-06T08:42:38.246Z,0.40
2022-08-06T08:45:09.062Z,0.88
2022-08-06T08:47:53.566Z,0.57
2022-08-06T08:50:23.008Z,0.60
2022-08-06T08:52:50.882Z,0.50
2022-08-06T08:57:01.929Z,0.50
2022-08-06T08:58:40.189Z,0.25
2022-08-06T09:00:54.604Z,0.45
2022-08-06T09:05:48.006Z,0.52
2022-08-06T09:08:18.915Z,0.50
2022-08-06T09:11:01.261Z,0.43
2022-08-06T09:13:51.329Z,0.30
2022-08-06T09:16:19.370Z,0.40
2022-08-06T09:18:58.255Z,0.60
2022-08-06T09:21:26.025Z,0.40
2022-08-06T09:23:57.911Z,0.50
2022-08-06T09:26:52.817Z,0.25
2022-08-06T09:29:24.100Z,0.57
2022-08-06T09:31:58.800Z,0.73
2022-08-06T09:34:41.108Z,0.40
2022-08-06T09:37:08.621Z,0.50
2022-08-06T09:39:59.932Z,0.30
2022-08-06T09:42:38.942Z,0.40
2022-08-06T09:45:16.426Z,0.40
2022-08-06T09:47:59.131Z,0.30
2022-08-06T09:50:47.027Z,0.47
2022-08-06T09:53:18.647Z,0.30
2022-08-06T09:55:47.338Z,0.30
2022-08-06T09:58:13.989Z,0.30
2022-08-06T10:00:40.855Z,0.47
2022-08-06T10:04:04.389Z,0.90
2022-08-06T10:06:10.843Z,0.63
2022-08-06T10:08:41.643Z,0.60
2022-08-06T10:11:08.660Z,0.63
2022-08-06T10:13:43.944Z,0.50
2022-08-06T10:16:28.967Z,0.55
2022-08-06T10:18:59.244Z,0.52
2022-08-06T10:21:41.298Z,0.40
2022-08-06T10:24:10.594Z,0.50
2022-08-06T10:26:37.481Z,0.65
2022-08-06T10:29:05.006Z,0.32
2022-08-06T10:31:32.264Z,0.30
2022-08-06T10:34:01.633Z,0.20
2022-08-06T10:36:34.962Z,0.30
2022-08-06T10:39:03.439Z,0.63
2022-08-06T10:41:59.426Z,0.50
2022-08-06T10:44:17.375Z,0.30
2022-08-06T10:46:44.158Z,0.50
2022-08-06T10:50:25.480Z,0.35
2022-08-06T10:51:58.766Z,0.35
2022-08-06T10:54:26.761Z,0.40
2022-08-06T10:56:57.826Z,0.25
2022-08-06T10:59:41.410Z,0.20
2022-08-06T11:02:29.181Z,0.68
2022-08-06T11:05:08.336Z,0.50
2022-08-06T11:08:14.385Z,0.30
2022-08-06T11:11:27.862Z,0.20
2022-08-06T11:14:15.016Z,0.47
2022-08-06T11:16:58.996Z,0.40
2022-08-06T11:19:58.833Z,0.70
2022-08-06T11:22:39.635Z,0.55
2022-08-06T11:25:36.851Z,0.55
2022-08-06T11:28:05.271Z,1.05
2022-08-06T11:30:51.743Z,0.50
2022-08-06T11:33:33.257Z,0.35
2022-08-06T11:36:01.524Z,0.32
2022-08-06T11:38:50.651Z,0.30
2022-08-06T11:41:44.611Z,0.28
2022-08-06T11:44:08.222Z,0.47
2022-08-06T11:46:39.373Z,0.30
2022-08-06T11:49:22.366Z,0.47
2022-08-06T11:52:06.810Z,0.40
2022-08-06T11:55:00.678Z,0.60
2022-08-06T11:57:41.674Z,0.45
2022-08-06T12:00:20.568Z,0.50
2022-08-06T12:02:54.667Z,0.47
2022-08-06T12:05:23.371Z,0.50
2022-08-06T12:08:38.674Z,0.68
2022-08-06T12:11:28.815Z,0.75
2022-08-06T12:14:31.955Z,5.13
2022-08-06T12:16:53.950Z,0.50
2022-08-06T12:19:21.574Z,0.30
2022-08-06T12:21:52.691Z,0.40
2022-08-06T12:24:35.666Z,0.20
2022-08-06T12:27:13.205Z,0.30
2022-08-06T12:29:42.136Z,0.57
2022-08-06T12:32:26.968Z,0.40
2022-08-06T12:34:59.848Z,0.40
2022-08-06T12:37:48.088Z,0.40
2022-08-06T12:40:27.196Z,0.52
2022-08-06T12:43:14.177Z,0.50
2022-08-06T12:46:07.149Z,0.28
2022-08-06T12:48:28.124Z,0.40
2022-08-06T12:51:11.386Z,0.60
2022-08-06T12:53:48.764Z,0.60
2022-08-06T12:56:30.846Z,0.30
2022-08-06T12:59:01.820Z,0.40
2022-08-06T13:02:07.338Z,0.45
2022-08-06T13:04:19.026Z,0.50
2022-08-06T13:06:48.484Z,0.52
2022-08-06T13:09:15.969Z,0.63
2022-08-06T13:11:42.563Z,0.57
2022-08-06T13:14:18.426Z,0.30
2022-08-06T13:16:56.725Z,0.60
2022-08-06T13:19:33.255Z,0.50
2022-08-06T13:22:10.370Z,0.40
2022-08-06T13:25:04.121Z,0.70
2022-08-06T13:27:35.371Z,0.50
2022-08-06T13:30:33.009Z,0.55
2022-08-06T13:32:54.181Z,0.60
2022-08-06T13:35:30.480Z,0.77
2022-08-06T13:38:15.728Z,0.50
2022-08-06T13:40:51.573Z,0.50
2022-08-06T13:43:53.765Z,0.28
2022-08-06T13:46:27.963Z,0.50
2022-08-06T13:48:58.999Z,0.47
2022-08-06T13:51:28.841Z,0.50
2022-08-06T13:53:58.248Z,0.73
2022-08-06T13:56:28.827Z,0.57
2022-08-06T13:58:57.613Z,0.63
2022-08-06T14:01:24.603Z,0.80
2022-08-06T14:04:09.447Z,0.50
2022-08-06T14:06:41.418Z,0.43
2022-08-06T14:09:19.186Z,0.60
2022-08-06T14:12:07.665Z,0.55
2022-08-06T14:14:33.917Z,0.50
2022-08-06T14:17:02.739Z,0.88
2022-08-06T14:20:10.007Z,0.80
2022-08-06T14:22:16.296Z,0.70
2022-08-06T14:24:53.036Z,0.93
2022-08-06T14:27:20.083Z,0.88
2022-08-06T14:30:29.676Z,0.90
2022-08-06T14:32:37.344Z,0.80
2022-08-06T14:35:05.572Z,0.88
2022-08-06T14:37:50.051Z,2.00
2022-08-06T14:40:38.035Z,0.70
2022-08-06T14:43:43.249Z,0.77
2022-08-06T14:46:21.875Z,1.13
2022-08-06T14:51:24.627Z,0.95
2022-08-06T14:54:04.948Z,1.02
2022-08-06T14:56:37.887Z,0.80
2022-08-06T14:59:12.238Z,0.90
2022-08-06T15:01:39.836Z,1.17
2022-08-06T15:04:22.515Z,0.90
2022-08-06T15:06:53.106Z,1.02
2022-08-06T15:09:21.075Z,0.80
2022-08-06T15:12:07.495Z,1.67
2022-08-06T15:14:38.575Z,0.93
2022-08-06T15:17:30.566Z,1.10
2022-08-06T15:19:51.321Z,1.05
2022-08-06T15:22:30.895Z,2.70
2022-08-06T15:25:09.643Z,1.05
2022-08-06T15:27:47.461Z,0.82
2022-08-06T15:30:17.834Z,1.00
2022-08-06T15:34:12.642Z,1.08
2022-08-06T15:36:50.644Z,1.05
2022-08-06T15:39:53.585Z,1.15
2022-08-06T15:43:02.318Z,0.95
2022-08-06T15:45:50.054Z,0.70
2022-08-06T15:48:29.099Z,0.95
2022-08-06T15:51:28.873Z,1.05
2022-08-06T15:53:57.841Z,0.85
2022-08-06T15:58:06.761Z,1.10
2022-08-06T16:00:44.280Z,2.13
2022-08-06T16:03:57.134Z,1.65
2022-08-06T16:06:26.013Z,1.10
